Time;durP1;ratioP1;P1;durP2;ratioP2;P2;SDS_P1;SDS_P2;PMS_P1;PMS_P2;Temp;Humidity;BMP_temperature;BMP_pressure;BME280_temperature;BME280_humidity;BME280_pressure;Samples;Min_cycle;Max_cycle;Signal;HPM_P1;HPM_P2
2023/12/30 00:01:53;;;;;;;1.38;0.70;;;8.40;93.60;;;;;;5015853;28;20080;-67
2023/12/30 00:04:19;;;;;;;0.50;0.50;;;8.40;93.60;;;;;;5019346;28;20507;-65
2023/12/30 00:06:44;;;;;;;4.13;0.73;;;8.40;93.70;;;;;;5018535;28;20484;-64
2023/12/30 00:09:10;;;;;;;1.75;0.70;;;8.30;93.70;;;;;;5022457;28;20033;-67
2023/12/30 00:11:35;;;;;;;1.02;0.70;;;8.30;93.80;;;;;;5018236;28;20021;-64
2023/12/30 00:14:01;;;;;;;0.70;0.60;;;8.30;93.80;;;;;;5017934;28;20068;-65
2023/12/30 00:16:28;;;;;;;1.00;0.68;;;8.30;93.80;;;;;;5016502;28;20057;-66
2023/12/30 00:18:53;;;;;;;0.98;0.60;;;8.30;93.90;;;;;;5023684;28;20090;-64
2023/12/30 00:21:20;;;;;;;0.82;0.70;;;8.30;93.80;;;;;;5022499;28;20025;-66
2023/12/30 00:23:46;;;;;;;1.50;0.80;;;8.20;93.80;;;;;;5014568;28;20113;-65
2023/12/30 00:26:22;;;;;;;0.85;0.63;;;8.20;93.80;;;;;;5016885;28;20555;-65
2023/12/30 00:28:49;;;;;;;2.90;0.70;;;8.20;93.80;;;;;;5019922;28;20138;-66
2023/12/30 00:31:24;;;;;;;1.20;0.63;;;8.20;93.80;;;;;;5014341;28;20022;-65
2023/12/30 00:33:52;;;;;;;1.70;0.68;;;8.20;93.80;;;;;;5017377;28;20067;-67
2023/12/30 00:36:18;;;;;;;1.17;0.85;;;8.10;93.80;;;;;;5016380;28;20045;-66
2023/12/30 00:38:43;;;;;;;1.17;0.70;;;8.10;93.80;;;;;;5018018;28;20068;-66
2023/12/30 00:41:09;;;;;;;1.55;0.88;;;8.10;93.80;;;;;;5016738;28;20026;-66
2023/12/30 00:43:37;;;;;;;1.83;0.60;;;8.10;93.80;;;;;;5017074;28;20029;-67
2023/12/30 00:46:02;;;;;;;2.05;0.70;;;8.10;93.70;;;;;;5020463;28;20381;-67
2023/12/30 00:48:30;;;;;;;1.85;0.80;;;8.10;93.70;;;;;;5020843;28;20029;-66
2023/12/30 00:50:56;;;;;;;2.50;0.82;;;8.10;93.70;;;;;;5020144;28;20544;-65
2023/12/30 00:53:21;;;;;;;1.42;0.80;;;8.00;93.70;;;;;;5022417;28;20025;-66
2023/12/30 00:55:47;;;;;;;0.95;0.70;;;8.00;93.80;;;;;;5018422;28;20091;-65
2023/12/30 00:58:12;;;;;;;1.05;0.70;;;8.00;94.00;;;;;;5017918;28;20119;-67
2023/12/30 01:00:38;;;;;;;2.05;0.80;;;7.90;93.80;;;;;;5016882;28;20044;-66
2023/12/30 01:03:03;;;;;;;1.30;0.60;;;8.00;93.80;;;;;;5021298;28;20022;-66
2023/12/30 01:05:29;;;;;;;1.70;0.77;;;7.90;93.90;;;;;;5014405;28;20047;-65
2023/12/30 01:07:54;;;;;;;4.07;0.98;;;7.90;93.90;;;;;;5019332;28;20057;-66
2023/12/30 01:10:20;;;;;;;1.05;0.70;;;7.90;93.90;;;;;;5019379;28;20030;-67
2023/12/30 01:12:46;;;;;;;0.90;0.70;;;7.90;93.90;;;;;;5023066;28;20076;-65
2023/12/30 01:15:12;;;;;;;2.20;0.70;;;7.90;93.90;;;;;;5019545;28;20560;-65
2023/12/30 01:17:37;;;;;;;0.80;0.70;;;7.90;93.90;;;;;;5021265;28;20101;-66
2023/12/30 01:20:03;;;;;;;2.40;0.82;;;7.90;93.90;;;;;;5021573;28;20026;-67
2023/12/30 01:22:29;;;;;;;2.65;0.93;;;7.90;93.90;;;;;;5019367;28;20472;-68
2023/12/30 01:24:54;;;;;;;3.15;0.90;;;7.90;93.90;;;;;;5020139;28;20033;-66
2023/12/30 01:27:20;;;;;;;2.45;1.00;;;7.90;93.80;;;;;;5019042;28;20028;-66
2023/12/30 01:29:45;;;;;;;1.00;0.70;;;7.90;93.80;;;;;;5017921;28;20072;-67
2023/12/30 01:32:12;;;;;;;1.85;0.80;;;7.90;93.80;;;;;;5019807;28;20090;-67
2023/12/30 01:34:37;;;;;;;1.58;0.90;;;7.90;93.80;;;;;;5015585;28;20058;-66
2023/12/30 01:37:03;;;;;;;0.93;0.60;;;7.90;93.80;;;;;;5022810;28;20053;-66
2023/12/30 01:39:29;;;;;;;3.03;0.80;;;7.90;93.80;;;;;;5019005;28;20124;-67
2023/12/30 01:41:54;;;;;;;2.58;0.80;;;7.90;93.80;;;;;;5019772;28;20408;-67
2023/12/30 01:44:20;;;;;;;0.82;0.70;;;7.90;93.70;;;;;;5022159;28;20069;-66
2023/12/30 01:46:48;;;;;;;1.45;0.80;;;7.90;93.70;;;;;;5017888;28;20019;-66
2023/12/30 01:49:14;;;;;;;0.95;0.60;;;7.90;93.70;;;;;;5020114;28;20489;-64
2023/12/30 01:51:40;;;;;;;2.85;0.90;;;7.90;93.70;;;;;;5017448;28;20030;-65
2023/12/30 01:54:06;;;;;;;2.13;0.80;;;7.90;93.80;;;;;;5019448;28;20044;-66
2023/12/30 01:56:32;;;;;;;0.90;0.80;;;7.80;93.80;;;;;;5018330;28;20033;-66
2023/12/30 01:58:59;;;;;;;3.17;0.80;;;7.80;93.80;;;;;;5018190;28;20034;-66
2023/12/30 02:01:28;;;;;;;1.60;0.80;;;7.90;93.80;;;;;;5017082;28;20030;-67
2023/12/30 02:03:54;;;;;;;3.25;1.08;;;7.90;93.80;;;;;;5020530;28;20543;-67
2023/12/30 02:06:20;;;;;;;1.40;0.82;;;7.90;93.80;;;;;;5024865;28;20653;-66
2023/12/30 02:08:47;;;;;;;1.13;0.70;;;7.90;93.80;;;;;;5023445;28;20052;-66
2023/12/30 02:11:14;;;;;;;1.98;0.70;;;7.90;93.80;;;;;;5018256;28;20022;-66
2023/12/30 02:13:43;;;;;;;2.25;0.73;;;7.90;93.70;;;;;;5017152;28;20026;-67
2023/12/30 02:16:08;;;;;;;0.88;0.63;;;7.90;93.70;;;;;;5020185;28;20116;-67
2023/12/30 02:18:34;;;;;;;1.75;1.23;;;7.90;93.70;;;;;;5014270;28;20144;-68
2023/12/30 02:20:59;;;;;;;1.98;0.60;;;7.90;93.70;;;;;;5020275;28;20036;-67
2023/12/30 02:23:25;;;;;;;1.92;0.60;;;7.90;93.70;;;;;;5017147;28;20029;-67
2023/12/30 02:25:51;;;;;;;0.98;0.65;;;8.00;93.70;;;;;;5017684;28;20552;-66
2023/12/30 02:28:17;;;;;;;1.77;1.23;;;8.00;93.70;;;;;;5020475;28;20469;-67
2023/12/30 02:30:42;;;;;;;2.67;0.70;;;7.90;93.70;;;;;;5015601;28;20451;-67
2023/12/30 02:33:08;;;;;;;2.13;0.85;;;7.90;93.70;;;;;;5018770;28;20040;-67
2023/12/30 02:35:34;;;;;;;2.53;0.85;;;7.90;93.80;;;;;;5020072;28;20048;-65
2023/12/30 02:37:59;;;;;;;0.80;0.65;;;7.90;93.80;;;;;;5015667;28;20037;-67
2023/12/30 02:40:25;;;;;;;1.55;0.90;;;7.90;93.80;;;;;;5016125;28;20033;-63
2023/12/30 02:42:51;;;;;;;1.55;0.88;;;7.90;93.80;;;;;;5013225;28;20038;-63
2023/12/30 02:45:16;;;;;;;1.35;0.65;;;7.90;93.80;;;;;;5019920;28;20024;-63
2023/12/30 02:47:42;;;;;;;3.22;0.90;;;7.90;93.80;;;;;;5016510;28;20049;-65
2023/12/30 02:50:08;;;;;;;1.45;0.82;;;7.90;93.80;;;;;;5018317;28;20500;-63
2023/12/30 02:52:33;;;;;;;1.60;0.90;;;7.90;93.90;;;;;;5018203;28;20057;-64
2023/12/30 02:55:00;;;;;;;0.93;0.70;;;7.90;93.90;;;;;;5018062;28;20380;-64
2023/12/30 02:57:26;;;;;;;2.15;0.80;;;7.90;94.00;;;;;;5022839;28;20026;-65
2023/12/30 02:59:52;;;;;;;1.80;0.90;;;8.00;94.00;;;;;;5012765;28;20167;-66
2023/12/30 03:02:17;;;;;;;2.08;0.80;;;8.00;93.90;;;;;;5015778;28;20030;-65
2023/12/30 03:04:43;;;;;;;1.80;0.88;;;8.00;93.90;;;;;;5014631;28;20156;-65
2023/12/30 03:07:09;;;;;;;1.02;0.75;;;8.00;93.90;;;;;;5018384;28;20070;-66
2023/12/30 03:09:34;;;;;;;1.23;0.80;;;8.00;94.00;;;;;;5015897;28;20022;-66
2023/12/30 03:12:02;;;;;;;0.60;0.60;;;8.00;94.00;;;;;;5019018;28;20107;-66
2023/12/30 03:14:28;;;;;;;3.42;0.90;;;8.00;94.00;;;;;;5018991;28;20026;-66
2023/12/30 03:16:54;;;;;;;3.58;0.82;;;8.00;94.00;;;;;;5021839;28;20030;-66
2023/12/30 03:19:19;;;;;;;2.38;0.75;;;8.00;94.00;;;;;;5015998;28;20026;-66
2023/12/30 03:21:45;;;;;;;1.67;0.82;;;8.00;94.00;;;;;;5016559;28;20033;-67
2023/12/30 03:24:11;;;;;;;2.80;1.17;;;8.00;94.10;;;;;;5016160;28;20029;-66
2023/12/30 03:26:37;;;;;;;1.65;0.80;;;7.90;94.10;;;;;;5017828;28;20044;-64
2023/12/30 03:29:03;;;;;;;2.25;0.80;;;7.90;94.10;;;;;;5016900;28;20463;-65
2023/12/30 03:31:29;;;;;;;1.23;0.80;;;7.90;94.20;;;;;;5014450;28;20076;-66
2023/12/30 03:33:55;;;;;;;2.47;0.80;;;8.00;94.20;;;;;;5015328;28;20473;-65
2023/12/30 03:36:21;;;;;;;2.47;0.80;;;7.90;94.10;;;;;;5015679;28;20032;-65
2023/12/30 03:38:50;;;;;;;2.15;0.90;;;8.00;94.20;;;;;;5015403;28;20040;-66
2023/12/30 03:41:17;;;;;;;2.63;0.68;;;8.00;94.20;;;;;;5011999;28;20080;-67
2023/12/30 03:43:42;;;;;;;2.25;0.80;;;7.90;94.20;;;;;;5015082;28;20037;-65
2023/12/30 03:46:08;;;;;;;4.35;0.90;;;7.90;94.20;;;;;;5018773;28;20028;-66
2023/12/30 03:48:34;;;;;;;1.77;0.82;;;7.90;94.30;;;;;;5019182;28;20071;-67
2023/12/30 03:50:59;;;;;;;2.10;0.70;;;7.90;94.30;;;;;;5017131;28;20057;-65
2023/12/30 03:53:26;;;;;;;1.90;0.88;;;7.90;94.30;;;;;;5016349;28;20026;-67
2023/12/30 03:55:52;;;;;;;2.65;0.82;;;7.90;94.30;;;;;;5015438;28;20061;-66
2023/12/30 03:58:17;;;;;;;2.15;0.70;;;7.90;94.30;;;;;;5020876;28;20029;-66
2023/12/30 04:00:43;;;;;;;1.85;0.80;;;8.00;94.30;;;;;;5018250;28;20029;-65
2023/12/30 04:03:08;;;;;;;1.85;0.70;;;8.00;94.30;;;;;;5018377;28;20038;-66
2023/12/30 04:05:34;;;;;;;1.40;0.80;;;8.00;94.30;;;;;;5014985;28;20047;-65
2023/12/30 04:08:00;;;;;;;1.77;0.70;;;8.00;94.30;;;;;;5017610;28;20369;-65
2023/12/30 04:10:26;;;;;;;3.08;0.90;;;8.00;94.30;;;;;;5012959;28;20148;-66
2023/12/30 04:12:51;;;;;;;1.98;0.90;;;8.00;94.20;;;;;;5017373;28;20030;-65
2023/12/30 04:15:17;;;;;;;3.33;0.90;;;8.00;94.30;;;;;;5013949;28;20086;-65
2023/12/30 04:17:43;;;;;;;1.65;0.80;;;8.00;94.30;;;;;;5019997;28;20389;-64
2023/12/30 04:20:09;;;;;;;1.92;0.80;;;8.00;94.30;;;;;;5014585;28;20386;-65
2023/12/30 04:22:34;;;;;;;1.20;0.75;;;8.00;94.30;;;;;;5016258;28;20030;-65
2023/12/30 04:25:02;;;;;;;1.98;0.80;;;8.00;94.30;;;;;;5014012;28;20488;-66
2023/12/30 04:27:27;;;;;;;3.28;1.05;;;8.00;94.30;;;;;;5019861;28;20029;-65
2023/12/30 04:29:53;;;;;;;1.65;0.70;;;8.00;94.30;;;;;;5020786;28;20032;-66
2023/12/30 04:32:20;;;;;;;1.45;0.70;;;8.00;94.30;;;;;;5013090;28;20408;-65
2023/12/30 04:34:46;;;;;;;2.10;1.00;;;8.00;94.30;;;;;;5017962;28;20064;-65
2023/12/30 04:37:12;;;;;;;0.98;0.60;;;8.00;94.30;;;;;;5019822;28;20053;-65
2023/12/30 04:39:38;;;;;;;2.85;0.90;;;8.00;94.30;;;;;;5016279;28;20033;-66
2023/12/30 04:42:04;;;;;;;3.13;1.02;;;8.00;94.40;;;;;;5016547;28;20511;-66
2023/12/30 04:44:29;;;;;;;2.08;0.75;;;8.00;94.40;;;;;;5018914;28;20033;-67
2023/12/30 04:46:55;;;;;;;1.48;0.85;;;8.00;94.40;;;;;;5013931;28;20434;-67
2023/12/30 04:49:21;;;;;;;3.17;1.00;;;8.00;94.40;;;;;;5016600;28;20025;-65
2023/12/30 04:51:46;;;;;;;1.92;0.98;;;8.00;94.50;;;;;;5015107;28;20018;-67
2023/12/30 04:54:12;;;;;;;1.02;0.80;;;8.00;94.40;;;;;;5013433;28;20133;-65
2023/12/30 04:56:37;;;;;;;1.52;0.70;;;8.00;94.40;;;;;;5018202;28;20521;-66
2023/12/30 04:59:03;;;;;;;2.40;0.80;;;8.00;94.40;;;;;;5019498;28;20025;-65
2023/12/30 05:01:33;;;;;;;2.30;0.77;;;8.00;94.40;;;;;;5023443;28;20056;-66
2023/12/30 05:03:59;;;;;;;1.30;0.70;;;8.00;94.40;;;;;;5012579;28;20084;-67
2023/12/30 05:06:25;;;;;;;3.33;0.90;;;8.00;94.50;;;;;;5014452;28;20032;-68
2023/12/30 05:08:52;;;;;;;1.67;0.90;;;8.00;94.50;;;;;;5020790;28;20026;-65
2023/12/30 05:11:18;;;;;;;3.55;0.90;;;7.90;94.40;;;;;;5012782;28;20092;-67
2023/12/30 05:13:44;;;;;;;2.30;0.70;;;7.90;94.50;;;;;;5014019;28;20026;-65
2023/12/30 05:16:10;;;;;;;1.90;1.02;;;7.90;94.50;;;;;;5017656;28;20053;-66
2023/12/30 05:18:37;;;;;;;5.10;1.17;;;7.90;94.50;;;;;;5014119;28;20061;-65
2023/12/30 05:21:03;;;;;;;3.83;1.00;;;7.90;94.50;;;;;;5015834;28;20029;-66
2023/12/30 05:23:31;;;;;;;3.20;1.10;;;7.90;94.60;;;;;;5016344;28;20022;-65
2023/12/30 05:25:57;;;;;;;4.57;1.00;;;7.90;94.60;;;;;;5014737;28;20045;-65
2023/12/30 05:28:23;;;;;;;2.85;1.10;;;7.90;94.60;;;;;;5018744;28;20048;-66
2023/12/30 05:30:49;;;;;;;4.40;1.02;;;7.90;94.50;;;;;;5016708;28;20384;-66
2023/12/30 05:33:14;;;;;;;4.55;0.95;;;7.90;94.50;;;;;;5018125;28;20048;-67
2023/12/30 05:35:40;;;;;;;1.52;0.70;;;7.90;94.50;;;;;;5021959;28;20017;-64
2023/12/30 05:38:06;;;;;;;1.58;0.70;;;7.90;94.50;;;;;;5032876;28;20022;-64
2023/12/30 05:40:31;;;;;;;3.45;0.82;;;7.90;94.50;;;;;;5013290;28;20147;-66
2023/12/30 05:42:57;;;;;;;2.22;0.80;;;7.90;94.50;;;;;;5018582;28;20434;-66
2023/12/30 05:45:22;;;;;;;1.55;0.70;;;7.90;94.60;;;;;;5013746;28;20032;-65
2023/12/30 05:47:48;;;;;;;2.90;1.02;;;7.90;94.60;;;;;;5013386;28;20026;-65
2023/12/30 05:50:14;;;;;;;1.40;0.80;;;7.90;94.60;;;;;;5017771;28;20021;-65
2023/12/30 05:52:40;;;;;;;3.85;1.02;;;7.90;94.60;;;;;;5023391;28;20021;-67
2023/12/30 05:55:06;;;;;;;1.15;0.80;;;7.80;94.60;;;;;;5016522;28;20021;-66
2023/12/30 05:57:32;;;;;;;2.00;0.70;;;7.80;94.60;;;;;;5017281;28;20048;-66
2023/12/30 05:59:57;;;;;;;4.03;0.80;;;7.80;94.60;;;;;;5017704;28;20540;-66
2023/12/30 06:02:23;;;;;;;1.00;0.68;;;7.80;94.60;;;;;;5016432;28;20133;-66
2023/12/30 06:04:49;;;;;;;1.65;0.75;;;7.80;94.60;;;;;;5021781;28;20048;-67
2023/12/30 06:07:15;;;;;;;3.53;0.80;;;7.80;94.60;;;;;;5017523;28;20495;-66
2023/12/30 06:09:44;;;;;;;1.27;0.70;;;7.80;94.70;;;;;;5021348;28;20546;-67
2023/12/30 06:12:10;;;;;;;1.40;1.08;;;7.80;94.70;;;;;;5016726;28;20052;-66
2023/12/30 06:14:36;;;;;;;1.58;0.80;;;7.80;95.00;;;;;;5017387;28;20034;-66
2023/12/30 06:17:02;;;;;;;3.05;0.85;;;7.80;94.70;;;;;;5014418;28;20427;-65
2023/12/30 06:19:28;;;;;;;2.05;0.90;;;7.80;94.70;;;;;;5017225;28;20152;-66
2023/12/30 06:21:54;;;;;;;1.90;0.80;;;7.70;94.60;;;;;;5012696;28;20030;-67
2023/12/30 06:24:21;;;;;;;1.60;0.95;;;7.70;94.70;;;;;;5016611;28;20076;-66
2023/12/30 06:26:46;;;;;;;2.80;0.95;;;7.70;94.70;;;;;;5018959;28;20021;-65
2023/12/30 06:29:12;;;;;;;3.72;0.90;;;7.70;94.70;;;;;;5016348;28;20504;-65
2023/12/30 06:31:41;;;;;;;2.15;1.10;;;7.70;94.80;;;;;;5013304;28;20101;-67
2023/12/30 06:34:08;;;;;;;4.50;1.05;;;7.60;94.80;;;;;;5022240;28;20108;-66
2023/12/30 06:36:33;;;;;;;2.08;0.77;;;7.60;94.80;;;;;;5014286;28;20026;-64
2023/12/30 06:38:59;;;;;;;1.05;0.85;;;7.70;94.80;;;;;;5021470;28;20672;-65
2023/12/30 06:41:24;;;;;;;2.85;0.80;;;7.60;94.80;;;;;;5016696;28;20017;-66
2023/12/30 06:43:51;;;;;;;3.40;0.90;;;7.60;94.90;;;;;;5020629;28;20048;-66
2023/12/30 06:46:20;;;;;;;2.35;0.98;;;7.70;94.90;;;;;;5015443;28;20029;-66
2023/12/30 06:48:47;;;;;;;2.38;0.90;;;7.60;94.90;;;;;;5015166;28;20032;-64
2023/12/30 06:51:13;;;;;;;6.10;1.20;;;7.60;94.90;;;;;;5021765;28;20093;-67
2023/12/30 06:53:39;;;;;;;2.22;0.85;;;7.60;95.00;;;;;;5014728;28;20393;-65
2023/12/30 06:56:08;;;;;;;4.53;1.20;;;7.60;95.00;;;;;;5017234;28;20101;-66
2023/12/30 06:58:34;;;;;;;3.08;1.00;;;7.60;95.00;;;;;;5016770;28;20025;-65
2023/12/30 07:01:00;;;;;;;3.13;1.38;;;7.60;95.00;;;;;;5017726;28;20025;-66
2023/12/30 07:03:25;;;;;;;2.05;1.00;;;7.60;95.00;;;;;;5012952;28;20029;-66
2023/12/30 07:05:51;;;;;;;3.03;1.00;;;7.60;95.00;;;;;;5020101;28;20391;-68
2023/12/30 07:08:17;;;;;;;4.57;1.15;;;7.70;95.00;;;;;;5018577;28;20045;-66
2023/12/30 07:10:42;;;;;;;6.03;1.20;;;7.60;95.00;;;;;;5017881;28;20060;-66
2023/12/30 07:13:08;;;;;;;2.78;1.13;;;7.60;95.00;;;;;;5016232;28;20033;-67
2023/12/30 07:15:34;;;;;;;2.20;1.20;;;7.60;95.10;;;;;;5018311;28;20026;-67
2023/12/30 07:18:01;;;;;;;3.05;1.30;;;7.60;95.10;;;;;;5015095;28;20028;-65
2023/12/30 07:20:27;;;;;;;2.25;1.00;;;7.60;95.10;;;;;;5015087;28;20026;-65
2023/12/30 07:22:53;;;;;;;6.30;1.50;;;7.60;95.10;;;;;;5015311;28;20053;-66
2023/12/30 07:25:19;;;;;;;3.50;1.30;;;7.60;95.20;;;;;;5013794;28;20520;-66
2023/12/30 07:27:45;;;;;;;1.17;0.80;;;7.60;95.20;;;;;;5011579;28;20113;-66
2023/12/30 07:30:11;;;;;;;2.45;1.00;;;7.60;95.20;;;;;;5019543;28;20071;-65
2023/12/30 07:32:37;;;;;;;1.60;1.10;;;7.60;95.20;;;;;;5017722;28;20038;-67
2023/12/30 07:35:06;;;;;;;2.40;1.15;;;7.60;95.20;;;;;;5018482;28;20021;-67
2023/12/30 07:37:32;;;;;;;1.65;1.10;;;7.60;95.20;;;;;;5016469;28;20029;-67
2023/12/30 07:40:00;;;;;;;3.05;0.88;;;7.60;95.50;;;;;;5012548;28;20076;-66
2023/12/30 07:42:25;;;;;;;2.30;0.93;;;7.60;95.20;;;;;;5011421;28;20026;-66
2023/12/30 07:44:52;;;;;;;1.52;0.90;;;7.60;95.20;;;;;;5018736;28;20040;-66
2023/12/30 07:47:18;;;;;;;1.88;1.00;;;7.60;95.30;;;;;;5015726;28;20120;-66
2023/12/30 07:49:44;;;;;;;2.28;1.58;;;7.60;95.30;;;;;;5018549;28;20117;-66
2023/12/30 07:52:10;;;;;;;4.85;1.00;;;7.60;95.30;;;;;;5022969;28;20028;-67
2023/12/30 07:54:35;;;;;;;2.33;0.95;;;7.60;95.30;;;;;;5014348;28;20085;-65
2023/12/30 07:57:01;;;;;;;2.47;0.98;;;7.60;95.30;;;;;;5013674;28;20025;-67
2023/12/30 07:59:27;;;;;;;3.22;1.00;;;7.60;95.30;;;;;;5017053;28;20083;-67
2023/12/30 08:01:56;;;;;;;1.52;1.08;;;7.60;95.30;;;;;;5017509;28;20492;-66
2023/12/30 08:04:22;;;;;;;4.43;1.30;;;7.50;95.30;;;;;;5014778;28;20030;-65
2023/12/30 08:06:48;;;;;;;3.65;1.10;;;7.50;95.30;;;;;;5015124;28;20095;-65
2023/12/30 08:09:14;;;;;;;1.42;1.00;;;7.60;95.30;;;;;;5016503;28;20480;-65
2023/12/30 08:11:39;;;;;;;2.45;0.90;;;7.60;95.30;;;;;;5015329;28;20060;-67
2023/12/30 08:14:05;;;;;;;1.23;0.90;;;7.60;95.30;;;;;;5014255;28;20619;-67
2023/12/30 08:16:32;;;;;;;3.15;1.25;;;7.60;95.30;;;;;;5016634;28;20025;-66
2023/12/30 08:18:58;;;;;;;4.85;1.45;;;7.60;95.30;;;;;;5014720;28;20038;-67
2023/12/30 08:21:24;;;;;;;2.58;1.00;;;7.60;95.30;;;;;;5012198;28;20030;-66
2023/12/30 08:23:50;;;;;;;3.45;1.10;;;7.60;95.30;;;;;;5013638;28;20029;-66
2023/12/30 08:26:15;;;;;;;4.57;1.60;;;7.60;95.30;;;;;;5012750;28;20022;-66
2023/12/30 08:28:42;;;;;;;3.45;1.33;;;7.60;95.30;;;;;;5016284;28;20082;-66
2023/12/30 08:31:07;;;;;;;1.05;0.90;;;7.60;95.30;;;;;;5022115;28;20036;-65
2023/12/30 08:33:33;;;;;;;2.90;1.23;;;7.60;95.20;;;;;;5015243;28;20396;-67
2023/12/30 08:35:58;;;;;;;3.10;0.90;;;7.60;95.20;;;;;;5011145;28;20026;-66
2023/12/30 08:38:24;;;;;;;2.55;1.05;;;7.70;95.20;;;;;;5014742;28;20021;-64
2023/12/30 08:40:49;;;;;;;2.17;1.10;;;7.60;95.20;;;;;;5016204;28;20033;-65
2023/12/30 08:43:15;;;;;;;4.43;1.30;;;7.60;95.30;;;;;;5016118;28;20112;-66
2023/12/30 08:45:41;;;;;;;4.60;1.25;;;7.70;95.30;;;;;;5012784;28;20040;-66
2023/12/30 08:48:06;;;;;;;3.92;1.30;;;7.70;95.30;;;;;;5013948;28;20033;-66
2023/12/30 08:50:32;;;;;;;2.67;0.90;;;7.80;95.30;;;;;;5016125;28;20013;-66
2023/12/30 08:52:57;;;;;;;2.20;1.17;;;7.80;95.30;;;;;;5012441;28;20037;-66
2023/12/30 08:55:23;;;;;;;3.95;1.40;;;7.80;95.30;;;;;;5012368;28;20025;-66
2023/12/30 08:57:49;;;;;;;3.40;0.98;;;7.80;95.30;;;;;;5017819;28;20047;-67
2023/12/30 09:00:16;;;;;;;4.45;1.38;;;7.80;95.30;;;;;;5016686;28;20021;-66
2023/12/30 09:02:46;;;;;;;6.65;1.65;;;7.90;95.20;;;;;;5014106;28;20065;-65
2023/12/30 09:05:19;;;;;;;3.03;1.13;;;7.90;95.30;;;;;;5017117;28;20028;-67
2023/12/30 09:07:45;;;;;;;3.83;1.17;;;7.90;95.30;;;;;;5017521;28;20026;-64
2023/12/30 09:10:11;;;;;;;3.42;1.10;;;8.00;95.30;;;;;;5014163;28;20362;-66
2023/12/30 09:12:37;;;;;;;4.13;1.13;;;8.00;95.20;;;;;;5015744;28;20041;-68
2023/12/30 09:15:05;;;;;;;3.65;1.00;;;8.00;95.20;;;;;;5023383;28;20038;-67
2023/12/30 09:17:30;;;;;;;2.97;0.80;;;8.10;95.10;;;;;;5019261;28;20097;-66
2023/12/30 09:19:56;;;;;;;2.75;1.05;;;8.10;95.10;;;;;;5016914;28;20161;-67
2023/12/30 09:22:22;;;;;;;3.30;1.20;;;8.10;95.10;;;;;;5018312;28;20072;-66
2023/12/30 09:24:47;;;;;;;2.65;1.00;;;8.10;95.10;;;;;;5015943;28;20030;-66
2023/12/30 09:27:13;;;;;;;2.05;0.98;;;8.20;95.40;;;;;;5018000;28;20025;-66
2023/12/30 09:29:39;;;;;;;3.40;0.80;;;8.20;95.10;;;;;;5015562;28;20117;-66
2023/12/30 09:32:05;;;;;;;1.67;0.90;;;8.30;95.10;;;;;;5021940;28;20022;-67
2023/12/30 09:34:30;;;;;;;3.65;1.20;;;8.30;95.00;;;;;;5020746;28;20109;-67
2023/12/30 09:36:56;;;;;;;1.73;0.90;;;8.30;95.00;;;;;;5015859;28;20053;-65
2023/12/30 09:39:21;;;;;;;2.78;1.17;;;8.30;95.00;;;;;;5022595;28;20435;-68
2023/12/30 09:41:47;;;;;;;1.73;0.90;;;8.30;95.00;;;;;;5019840;28;20025;-66
2023/12/30 09:44:13;;;;;;;2.88;0.93;;;8.40;95.30;;;;;;5021356;28;20087;-67
2023/12/30 09:46:40;;;;;;;4.30;1.30;;;8.40;95.00;;;;;;5020531;28;20025;-66
2023/12/30 09:49:06;;;;;;;2.33;1.20;;;8.40;95.00;;;;;;5015092;28;20561;-66
2023/12/30 09:51:33;;;;;;;2.97;1.40;;;8.40;95.00;;;;;;5019074;28;20113;-66
2023/12/30 09:53:59;;;;;;;3.42;1.00;;;8.40;95.00;;;;;;5018758;28;20400;-66
2023/12/30 09:56:25;;;;;;;4.38;1.10;;;8.50;94.90;;;;;;5027100;28;20067;-66
2023/12/30 09:58:53;;;;;;;2.95;0.93;;;8.50;94.90;;;;;;5025895;28;20052;-68
2023/12/30 10:01:20;;;;;;;3.58;1.10;;;8.50;94.90;;;;;;5014277;28;20026;-64
2023/12/30 10:03:46;;;;;;;5.85;1.48;;;8.60;94.90;;;;;;5013121;28;20061;-66
2023/12/30 10:06:14;;;;;;;1.42;1.00;;;8.60;94.90;;;;;;5024789;28;20026;-67
2023/12/30 10:08:42;;;;;;;3.95;1.10;;;8.60;94.80;;;;;;5024424;28;20018;-66
2023/12/30 10:11:08;;;;;;;4.88;1.30;;;8.60;94.80;;;;;;5020139;28;20021;-67
2023/12/30 10:13:38;;;;;;;4.07;1.40;;;8.60;94.80;;;;;;5020012;28;20072;-65
2023/12/30 10:16:05;;;;;;;2.38;0.90;;;8.70;94.80;;;;;;5016216;28;20026;-68
2023/12/30 10:18:38;;;;;;;3.45;1.17;;;8.70;94.80;;;;;;5018633;28;20036;-66
2023/12/30 10:21:04;;;;;;;3.45;1.20;;;8.80;94.90;;;;;;5019429;28;20031;-65
2023/12/30 10:23:32;;;;;;;4.55;1.55;;;8.80;94.80;;;;;;5021000;28;20030;-66
2023/12/30 10:25:58;;;;;;;4.95;1.10;;;8.80;94.80;;;;;;5022359;28;20044;-65
2023/12/30 10:28:24;;;;;;;3.33;1.08;;;8.80;94.70;;;;;;5024238;28;20068;-67
2023/12/30 10:31:03;;;;;;;3.50;1.05;;;8.80;94.70;;;;;;5022942;28;20563;-68
2023/12/30 10:33:30;;;;;;;5.80;1.45;;;8.90;94.70;;;;;;5024918;28;20495;-67
2023/12/30 10:35:56;;;;;;;3.28;1.17;;;8.90;94.80;;;;;;5027779;28;20063;-65
2023/12/30 10:38:23;;;;;;;3.00;0.90;;;8.90;94.80;;;;;;5029234;28;20041;-66
2023/12/30 10:40:50;;;;;;;2.88;0.77;;;8.90;94.80;;;;;;5028251;28;20029;-65
2023/12/30 10:43:17;;;;;;;2.85;0.90;;;9.00;94.80;;;;;;5023399;28;20033;-65
2023/12/30 10:45:42;;;;;;;1.52;0.88;;;9.00;94.70;;;;;;5015844;28;20393;-66
2023/12/30 10:48:08;;;;;;;7.82;1.30;;;9.10;94.70;;;;;;5019394;28;20029;-66
2023/12/30 10:50:38;;;;;;;4.00;1.38;;;9.10;94.70;;;;;;5017903;28;20116;-66
2023/12/30 10:53:25;;;;;;;2.92;0.90;;;9.10;94.70;;;;;;5020023;28;20643;-68
2023/12/30 10:55:55;;;;;;;6.47;1.17;;;9.10;94.70;;;;;;5018929;28;20044;-68
2023/12/30 10:58:24;;;;;;;3.55;1.10;;;9.10;94.70;;;;;;5017748;28;20025;-65
2023/12/30 11:00:59;;;;;;;2.88;0.93;;;9.10;94.70;;;;;;5019242;28;20084;-66
2023/12/30 11:03:25;;;;;;;3.28;0.90;;;9.20;94.70;;;;;;5019997;28;20022;-66
2023/12/30 11:06:00;;;;;;;6.47;1.40;;;9.20;94.60;;;;;;5022891;28;20380;-66
2023/12/30 11:08:26;;;;;;;7.35;1.50;;;9.30;94.60;;;;;;5020164;28;20503;-65
2023/12/30 11:10:51;;;;;;;3.15;1.00;;;9.20;94.60;;;;;;5020082;28;20030;-68
2023/12/30 11:13:20;;;;;;;2.47;0.95;;;9.20;94.60;;;;;;5023253;28;20026;-67
2023/12/30 11:15:45;;;;;;;4.78;1.60;;;9.30;94.70;;;;;;5022411;28;20399;-65
2023/12/30 11:18:14;;;;;;;4.78;1.40;;;9.30;94.70;;;;;;5019734;28;20037;-67
2023/12/30 11:20:46;;;;;;;3.35;1.20;;;9.30;94.70;;;;;;5024032;28;20515;-66
2023/12/30 11:23:14;;;;;;;4.90;1.20;;;9.30;94.70;;;;;;5022577;28;20500;-66
2023/12/30 11:25:46;;;;;;;7.78;1.45;;;9.30;94.70;;;;;;5025823;28;20028;-66
2023/12/30 11:28:21;;;;;;;6.40;1.73;;;9.40;94.70;;;;;;5011550;28;20778;-68
2023/12/30 11:31:00;;;;;;;2.80;1.05;;;9.30;94.80;;;;;;5024260;28;20676;-66
2023/12/30 11:33:27;;;;;;;2.88;1.10;;;9.40;94.80;;;;;;5022447;28;20029;-65
2023/12/30 11:35:54;;;;;;;4.47;1.45;;;9.40;94.80;;;;;;5023557;28;20058;-66
2023/12/30 11:38:20;;;;;;;6.03;1.30;;;9.40;94.80;;;;;;5023609;28;20541;-67
2023/12/30 11:40:51;;;;;;;6.32;1.75;;;9.40;94.80;;;;;;5024863;28;20029;-65
2023/12/30 11:43:17;;;;;;;6.82;1.67;;;9.40;94.80;;;;;;5020346;28;20025;-65
2023/12/30 11:45:43;;;;;;;4.47;1.45;;;9.50;94.80;;;;;;5019776;28;20029;-66
2023/12/30 11:48:08;;;;;;;4.20;1.63;;;9.50;94.80;;;;;;5020013;28;20026;-66
2023/12/30 11:50:34;;;;;;;2.78;1.30;;;9.50;94.80;;;;;;5022309;28;20101;-66
2023/12/30 11:53:01;;;;;;;6.70;2.15;;;9.60;94.80;;;;;;5016937;28;20091;-65
2023/12/30 11:55:27;;;;;;;5.65;2.13;;;9.60;94.70;;;;;;5016697;28;20022;-67
2023/12/30 11:57:54;;;;;;;7.57;2.22;;;9.60;94.70;;;;;;5017703;28;20039;-67
2023/12/30 12:00:24;;;;;;;6.35;2.10;;;9.60;94.80;;;;;;5018919;28;20030;-65
2023/12/30 12:02:50;;;;;;;5.90;2.03;;;9.60;94.80;;;;;;5017848;28;20369;-67
2023/12/30 12:05:16;;;;;;;6.53;2.35;;;9.60;94.80;;;;;;5017683;28;20479;-67
2023/12/30 12:07:42;;;;;;;6.53;2.38;;;9.60;94.80;;;;;;5015160;28;20062;-65
2023/12/30 12:10:08;;;;;;;7.40;1.98;;;9.70;94.80;;;;;;5023723;28;20672;-66
2023/12/30 12:12:35;;;;;;;5.43;2.13;;;9.70;94.80;;;;;;5019790;28;20452;-65
2023/12/30 12:15:02;;;;;;;8.60;2.40;;;9.70;94.80;;;;;;5020552;28;20025;-65
2023/12/30 12:17:28;;;;;;;12.25;3.33;;;9.70;94.80;;;;;;5018613;28;20507;-67
2023/12/30 12:19:53;;;;;;;6.68;2.17;;;9.70;94.80;;;;;;5020341;28;20032;-68
2023/12/30 12:22:21;;;;;;;6.28;1.85;;;9.80;94.90;;;;;;5020011;28;20037;-67
2023/12/30 12:24:47;;;;;;;5.35;2.55;;;9.80;94.90;;;;;;5020583;28;20105;-68
2023/12/30 12:27:21;;;;;;;7.10;3.00;;;9.80;95.00;;;;;;5021510;28;20032;-67
2023/12/30 12:29:52;;;;;;;7.20;2.17;;;9.80;95.00;;;;;;5019911;28;20102;-67
2023/12/30 12:32:22;;;;;;;3.80;1.73;;;9.80;95.30;;;;;;5022864;28;20484;-66
2023/12/30 12:34:48;;;;;;;4.18;2.13;;;9.90;95.00;;;;;;5020480;28;20025;-65
2023/12/30 12:37:17;;;;;;;7.53;2.58;;;9.90;95.30;;;;;;5024295;28;20063;-65
2023/12/30 12:39:44;;;;;;;4.53;1.88;;;9.90;95.00;;;;;;5016535;28;20040;-66
2023/12/30 12:42:11;;;;;;;4.10;1.80;;;9.90;95.00;;;;;;5018245;28;20022;-65
2023/12/30 12:44:38;;;;;;;7.47;2.92;;;9.90;95.10;;;;;;5018287;28;20040;-65
2023/12/30 12:47:04;;;;;;;10.50;3.17;;;9.90;95.10;;;;;;5019152;28;20373;-68
2023/12/30 12:49:29;;;;;;;6.63;2.33;;;9.90;95.20;;;;;;5019598;28;20052;-65
2023/12/30 12:51:55;;;;;;;5.82;2.33;;;9.90;95.20;;;;;;5013739;28;20607;-67
2023/12/30 12:54:21;;;;;;;6.53;2.45;;;10.00;95.20;;;;;;5020574;28;20025;-65